Hauptseite
METAR-TAF:

METAR-TAF

Flughäfen :

Flughafen Fuaʻamotu

Tongatapu, Tonga

Breite: 21-14S, Länge: 175-09W, Höhe: 38 m

Beobachtung

Neuester Wetterbericht von vor 22 Minuten, um 00:00 UTC
Wind 8 kt aus Ost/Südost
Temperatur 31°C
Luftfeuchtigkeit 79%
Luftdruck 1011 hPa
Sichtweite 10 km oder mehr
Leicht bewölkt in der Höhe von 1800 ft, Towering cumulus.

METAR: NFTF 210000Z 11008KT 9999 FEW018TCU 31/27 Q1011

Zeit: 13:22 (00:22 UTC)

Prognose

Neuester Wetterbericht von vor 1 Stunde und 5 Minuten, um 23:17 UTC
Gültige Prognose vom 21 um 00 UTC bis 21 um 24 UTC
Wind 9 kt aus Ost/Südost
Sichtweite 10 km oder mehr
Leicht bewölkt in der Höhe von 1700 ft
Wahrscheinlichkeit 30% :
Zeitweise
vom 21 um 03 UTC bis 21 um 12 UTC
Sichtweite: 5000 m
Durchbrochene Bewölkung in der Höhe von 1500 ft
Regenschauer

TAF: NFTF 202317Z 2100/2124 12009KT 9999 FEW017 PROB30 TEMPO 2103/2112 5000 SHRA BKN015

Wetterbeobachtungen und Prognosen von mehr als 4000 Flughäfen (METAR und TAF Bericht).

Die verfügbaren Stationen werden durch gelbe und rote Markierungen auf der Karte dargestellt.

Führen Sie die Maus auf sie, um den Namen der Station zu sehen.

Darauf klicken, um die Beobachtung von Wetterbeobachtungen und Prognosen zu sehen.

Um die Karte zu ändern : klicken Sie auf den grünen Tasten mit einem schwarzen Kreuz Zum Vergrößern, auf den grünen Button mit einem Gedankenstrich zu verkleinern, oder auf die grünen Pfeile für benachbarte Karten.


METAR-TAF: